Cadillac, MI

8:54 AM EDT on September 26, 2016 (GMT -0400)
Wexford County

Weather History for KCAD - October, 2012

Change the Weather History Date:

Thursday, October 18, 2012

  Actual Average Record
Temperature  
Mean Temperature 50 °F -  
Max Temperature 59 °F 53 °F 80 °F (1950)
Min Temperature 42 °F 34 °F 10 °F (1952)
Degree Days  
Heating Degree Days 14    
Moisture  
Dew Point 47 °F    
Average Humidity 85    
Maximum Humidity 89    
Minimum Humidity 76    
Precipitation  
Precipitation 0.00 in - - ()
Sea Level Pressure  
Sea Level Pressure 29.40 in    
Wind  
Wind Speed 15 mph (SSE)    
Max Wind Speed 23 mph    
Max Gust Speed 31 mph    
Visibility 9 miles    
Events Rain    
Averages and records for this station are not official NWS values.
T = Trace of Precipitation, MM = Missing Value Source: NWS Daily Summary

Daily Weather History Graph

Daily Weather History Graph

Search for Another Location

Airport or City:

Trip Planner

Search our weather history database for the weather conditions in past years. The results will help you decide how hot, cold, wet, or windy it might be!

Date:

Astronomy

Oct. 18, 2012 Rise Set
Actual Time 8:00 AM EDT 6:51 PM EDT
Civil Twilight 7:31 AM EDT 7:21 PM EDT
Nautical Twilight 6:57 AM EDT 7:54 PM EDT
Astronomical Twilight 6:24 AM EDT 8:28 PM EDT
Moon 11:50 AM EDT (10/18) 9:17 PM EDT (10/18)
Length of Visible Light 11h 49m
Length of Day
10h 50m
Waxing Crescent, 14% of the Moon is Illuminated
Oct 18
Waxing Crescent
Oct 21
First Quarter
Oct 29
Full
Nov 6
Last Quarter
Nov 13
New

Hourly Weather History & Observations

Time (EDT) Temp. Windchill Dew Point Humidity Pressure Visibility Wind Dir Wind Speed Gust Speed Precip Events Conditions
12:14 AM 57.2 °F - 52.9 °F 85% 29.44 in 10.0 mi SSE 18.4 mph 26.5 mph N/A   Overcast
12:35 AM 57.9 °F - 53.4 °F 85% 29.43 in 10.0 mi SSE 16.1 mph 24.2 mph N/A   Overcast
12:54 AM 59.0 °F - 54.0 °F 83% 29.42 in 10.0 mi SSE 18.4 mph 26.5 mph N/A   Overcast
1:14 AM 57.7 °F - 53.6 °F 86% 29.41 in 10.0 mi SE 18.4 mph 28.8 mph N/A   Drizzle
1:34 AM 56.5 °F - 52.7 °F 87% 29.40 in 10.0 mi SE 19.6 mph 25.3 mph N/A Rain Rain
1:54 AM 58.3 °F - 53.4 °F 84% 29.39 in 10.0 mi SSE 19.6 mph 31.1 mph N/A   Overcast
2:14 AM 58.5 °F - 53.6 °F 84% 29.38 in 10.0 mi SSE 23.0 mph 28.8 mph N/A   Overcast
2:34 AM 59.0 °F - 53.6 °F 82% 29.37 in 10.0 mi SSE 20.7 mph 28.8 mph N/A   Overcast
2:54 AM 58.6 °F - 53.6 °F 83% 29.36 in 10.0 mi SE 17.3 mph 27.6 mph N/A Rain Light Rain
3:14 AM 57.4 °F - 53.1 °F 85% 29.34 in 10.0 mi SE 18.4 mph 25.3 mph N/A   Light Drizzle
3:34 AM 57.7 °F - 52.9 °F 84% 29.34 in 10.0 mi SSE 21.9 mph 31.1 mph N/A   Overcast
3:54 AM 57.2 °F - 52.9 °F 85% 29.33 in 10.0 mi SE 16.1 mph 28.8 mph N/A   Overcast
4:14 AM 57.2 °F - 52.5 °F 84% 29.32 in 10.0 mi SE 19.6 mph 31.1 mph N/A   Overcast
4:34 AM 56.5 °F - 52.2 °F 85% 29.31 in 10.0 mi SE 16.1 mph 26.5 mph N/A Rain Rain
4:54 AM 56.5 °F - 52.2 °F 85% 29.30 in 10.0 mi SE 16.1 mph 29.9 mph N/A   Light Drizzle
5:14 AM 56.5 °F - 52.2 °F 85% 29.30 in 10.0 mi SE 17.3 mph 25.3 mph N/A   Drizzle
5:34 AM 56.5 °F - 52.3 °F 86% 29.29 in 10.0 mi SE 15.0 mph 21.9 mph N/A   Drizzle
5:54 AM 56.5 °F - 52.2 °F 85% 29.28 in 10.0 mi SE 17.3 mph 24.2 mph N/A   Overcast
6:14 AM 56.5 °F - 51.8 °F 84% 29.28 in 10.0 mi SE 16.1 mph 26.5 mph N/A   Overcast
6:34 AM 56.5 °F - 51.8 °F 84% 29.27 in 10.0 mi SE 15.0 mph 24.2 mph N/A Rain Rain
6:54 AM 56.5 °F - 51.8 °F 84% 29.27 in 10.0 mi SE 16.1 mph - N/A   Light Drizzle
7:34 AM 56.5 °F - 52.0 °F 85% 29.26 in 10.0 mi SE 15.0 mph 26.5 mph N/A Rain Rain
7:54 AM 56.5 °F - 52.2 °F 85% 29.25 in 10.0 mi SE 15.0 mph 23.0 mph N/A   Drizzle
8:14 AM 56.5 °F - 52.3 °F 86% 29.25 in 10.0 mi SE 17.3 mph 24.2 mph N/A Rain Light Rain
8:34 AM 56.5 °F - 52.3 °F 86% 29.26 in 7.0 mi SE 15.0 mph 18.4 mph N/A Rain Rain
8:54 AM 54.1 °F - 50.5 °F 88% 29.26 in 10.0 mi SE 12.7 mph 21.9 mph N/A Rain Light Rain
9:14 AM 52.3 °F - 48.6 °F 87% 29.28 in 2.5 mi SW 16.1 mph 20.7 mph N/A Rain Heavy Rain
9:34 AM 51.4 °F - 48.0 °F 88% 29.29 in 10.0 mi SW 11.5 mph 23.0 mph N/A Rain Light Rain
9:54 AM 51.4 °F - 48.2 °F 89% 29.30 in 10.0 mi SSW 10.4 mph - N/A Rain Heavy Rain
10:14 AM 51.4 °F - 48.2 °F 89% 29.30 in 10.0 mi South 5.8 mph 9.2 mph N/A Rain Light Rain
10:34 AM 51.4 °F - 48.4 °F 89% 29.30 in 10.0 mi South 5.8 mph - N/A Rain Light Rain
10:54 AM 51.4 °F - 48.4 °F 89% 29.31 in 10.0 mi SSW 10.4 mph - N/A   Drizzle
11:14 AM 51.4 °F - 47.8 °F 87% 29.32 in 10.0 mi South 6.9 mph - N/A   Overcast
11:34 AM 51.4 °F - 47.8 °F 87% 29.32 in 10.0 mi South 9.2 mph - N/A   Overcast
11:54 AM 51.4 °F - 48.0 °F 88% 29.33 in 5.0 mi South 8.1 mph - N/A Rain Heavy Rain
12:14 PM 51.4 °F - 48.2 °F 89% 29.33 in 5.0 mi South 6.9 mph - N/A Rain Heavy Rain
12:34 PM 49.1 °F - 45.0 °F 86% 29.35 in 7.0 mi South 11.5 mph 19.6 mph N/A Rain Light Rain
12:54 PM 49.1 °F - 45.0 °F 86% 29.34 in 10.0 mi SSW 11.5 mph 16.1 mph N/A   Overcast
1:14 PM 49.1 °F - 44.8 °F 85% 29.35 in 10.0 mi South 11.5 mph 16.1 mph N/A   Overcast
1:34 PM 49.1 °F - 45.0 °F 86% 29.36 in 5.0 mi SSW 15.0 mph - N/A Rain Rain
1:54 PM 48.7 °F - 45.0 °F 87% 29.38 in 5.0 mi SSW 15.0 mph 23.0 mph N/A Rain Light Rain
2:14 PM 46.0 °F 39.6 °F 42.3 °F 87% 29.39 in 3.0 mi SSW 15.0 mph 23.0 mph N/A   Drizzle
2:34 PM 47.7 °F - 43.5 °F 86% 29.39 in 10.0 mi SSW 13.8 mph 19.6 mph N/A   Overcast
2:54 PM 49.1 °F - 44.8 °F 85% 29.39 in 10.0 mi South 10.4 mph - N/A   Overcast
3:14 PM 49.1 °F - 45.0 °F 86% 29.40 in 10.0 mi South 11.5 mph - N/A   Light Drizzle
3:34 PM 49.1 °F - 44.6 °F 84% 29.42 in 10.0 mi SSW 12.7 mph 19.6 mph N/A   Overcast
3:54 PM 49.1 °F - 43.3 °F 81% 29.42 in 10.0 mi South 10.4 mph 17.3 mph N/A   Overcast
4:14 PM 49.1 °F - 43.7 °F 82% 29.43 in 10.0 mi South 8.1 mph 12.7 mph N/A   Overcast
4:34 PM 49.1 °F - 43.2 °F 80% 29.45 in 10.0 mi South 11.5 mph - N/A   Overcast
4:55 PM 49.1 °F - 43.2 °F 80% 29.45 in 10.0 mi SSE 5.8 mph - N/A   Overcast
5:14 PM 46.4 °F 40.4 °F 40.3 °F 79% 29.47 in 10.0 mi South 13.8 mph 25.3 mph N/A   Drizzle
5:34 PM 45.1 °F 39.5 °F 41.0 °F 85% 29.47 in 7.0 mi South 11.5 mph 24.2 mph N/A Rain Light Rain
5:55 PM 45.1 °F 39.9 °F 41.0 °F 85% 29.49 in 10.0 mi South 10.4 mph 16.1 mph N/A   Overcast
6:14 PM 44.6 °F 40.2 °F 39.4 °F 82% 29.50 in 10.0 mi South 8.1 mph - N/A   Mostly Cloudy
6:34 PM 44.6 °F 40.2 °F 39.4 °F 82% 29.50 in 10.0 mi South 8.1 mph - N/A   Overcast
6:54 PM 45.1 °F 39.9 °F 39.6 °F 81% 29.51 in 10.0 mi SSE 10.4 mph - N/A   Overcast
7:14 PM 45.1 °F 40.8 °F 39.0 °F 79% 29.51 in 10.0 mi SE 8.1 mph - N/A   Overcast
7:34 PM 45.5 °F 40.8 °F 39.2 °F 79% 29.52 in 10.0 mi SE 9.2 mph - N/A   Overcast
7:54 PM 45.5 °F 41.3 °F 38.7 °F 77% 29.52 in 10.0 mi SE 8.1 mph - N/A   Light Drizzle
8:14 PM 45.5 °F 39.2 °F 38.5 °F 76% 29.53 in 10.0 mi SSE 13.8 mph 17.3 mph N/A Rain Light Rain
8:34 PM 43.9 °F 37.2 °F 39.4 °F 84% 29.55 in 7.0 mi SSW 13.8 mph 19.6 mph N/A Rain Rain
8:54 PM 42.8 °F 38.0 °F 38.5 °F 85% 29.56 in 10.0 mi South 8.1 mph - N/A Rain Rain
9:14 PM 42.8 °F 38.0 °F 38.8 °F 86% 29.56 in 10.0 mi South 8.1 mph - N/A   Drizzle
9:34 PM 42.8 °F 37.0 °F 39.2 °F 87% 29.56 in 10.0 mi South 10.4 mph 16.1 mph N/A   Drizzle
9:54 PM 43.9 °F 38.8 °F 39.9 °F 86% 29.56 in 10.0 mi South 9.2 mph - N/A Rain Rain
10:14 PM 43.9 °F 38.8 °F 39.7 °F 85% 29.56 in 10.0 mi South 9.2 mph - N/A   Overcast
10:34 PM 42.8 °F 37.0 °F 38.8 °F 86% 29.56 in 10.0 mi SSE 10.4 mph - N/A   Overcast
10:54 PM 43.9 °F 37.5 °F 39.6 °F 85% 29.55 in 10.0 mi SSE 12.7 mph - N/A   Mostly Cloudy
11:14 PM 43.9 °F 38.8 °F 38.8 °F 82% 29.55 in 10.0 mi SSE 9.2 mph 16.1 mph N/A   Mostly Cloudy
11:34 PM 43.9 °F 39.3 °F 38.7 °F 82% 29.55 in 10.0 mi SSE 8.1 mph - N/A   Mostly Cloudy